sensor_id;sensor_type;location;lat;lon;timestamp;P1;durP1;ratioP1;P2;durP2;ratioP2
79702;SDS011;69172;52.352;5.006;2023-09-30T00:00:20;13.88;;;4.00;;
79702;SDS011;69172;52.352;5.006;2023-09-30T00:02:45;12.32;;;3.70;;
79702;SDS011;69172;52.352;5.006;2023-09-30T00:05:11;15.43;;;4.03;;
79702;SDS011;69172;52.352;5.006;2023-09-30T00:07:36;13.35;;;4.05;;
79702;SDS011;69172;52.352;5.006;2023-09-30T00:10:02;12.27;;;3.30;;
79702;SDS011;69172;52.352;5.006;2023-09-30T00:12:29;14.50;;;3.92;;
79702;SDS011;69172;52.352;5.006;2023-09-30T00:14:56;16.05;;;4.22;;
79702;SDS011;69172;52.352;5.006;2023-09-30T00:17:21;11.02;;;3.60;;
79702;SDS011;69172;52.352;5.006;2023-09-30T00:19:47;15.35;;;4.32;;
79702;SDS011;69172;52.352;5.006;2023-09-30T00:22:12;14.15;;;3.95;;
79702;SDS011;69172;52.352;5.006;2023-09-30T00:24:38;14.88;;;4.82;;
79702;SDS011;69172;52.352;5.006;2023-09-30T00:27:04;14.88;;;3.97;;
79702;SDS011;69172;52.352;5.006;2023-09-30T00:29:29;12.68;;;3.63;;
79702;SDS011;69172;52.352;5.006;2023-09-30T00:31:55;14.65;;;4.07;;
79702;SDS011;69172;52.352;5.006;2023-09-30T00:34:20;13.90;;;4.07;;
79702;SDS011;69172;52.352;5.006;2023-09-30T00:36:46;16.13;;;4.18;;
79702;SDS011;69172;52.352;5.006;2023-09-30T00:39:14;14.70;;;4.35;;
79702;SDS011;69172;52.352;5.006;2023-09-30T00:41:40;13.50;;;4.20;;
79702;SDS011;69172;52.352;5.006;2023-09-30T00:44:05;10.95;;;4.05;;
79702;SDS011;69172;52.352;5.006;2023-09-30T00:46:33;10.32;;;3.67;;
79702;SDS011;69172;52.352;5.006;2023-09-30T00:49:09;13.68;;;4.03;;
79702;SDS011;69172;52.352;5.006;2023-09-30T00:51:35;16.63;;;4.13;;
79702;SDS011;69172;52.352;5.006;2023-09-30T00:54:02;12.55;;;4.60;;
79702;SDS011;69172;52.352;5.006;2023-09-30T00:56:29;13.55;;;4.25;;
79702;SDS011;69172;52.352;5.006;2023-09-30T00:58:56;11.93;;;4.22;;
79702;SDS011;69172;52.352;5.006;2023-09-30T01:01:22;13.75;;;5.28;;
79702;SDS011;69172;52.352;5.006;2023-09-30T01:03:48;16.17;;;5.03;;
79702;SDS011;69172;52.352;5.006;2023-09-30T01:06:15;14.25;;;5.05;;
79702;SDS011;69172;52.352;5.006;2023-09-30T01:08:41;15.70;;;5.63;;
79702;SDS011;69172;52.352;5.006;2023-09-30T01:11:06;17.48;;;5.65;;
79702;SDS011;69172;52.352;5.006;2023-09-30T01:13:33;12.05;;;4.65;;
79702;SDS011;69172;52.352;5.006;2023-09-30T01:16:09;13.18;;;5.43;;
79702;SDS011;69172;52.352;5.006;2023-09-30T01:18:35;16.52;;;4.65;;
79702;SDS011;69172;52.352;5.006;2023-09-30T01:21:03;15.38;;;5.35;;
79702;SDS011;69172;52.352;5.006;2023-09-30T01:23:33;18.27;;;6.32;;
79702;SDS011;69172;52.352;5.006;2023-09-30T01:26:03;13.85;;;6.03;;
79702;SDS011;69172;52.352;5.006;2023-09-30T01:28:31;15.90;;;5.57;;
79702;SDS011;69172;52.352;5.006;2023-09-30T01:30:56;14.45;;;5.40;;
79702;SDS011;69172;52.352;5.006;2023-09-30T01:33:22;16.65;;;6.22;;
79702;SDS011;69172;52.352;5.006;2023-09-30T01:35:48;15.15;;;6.22;;
79702;SDS011;69172;52.352;5.006;2023-09-30T01:38:13;18.02;;;6.03;;
79702;SDS011;69172;52.352;5.006;2023-09-30T01:40:45;14.30;;;6.65;;
79702;SDS011;69172;52.352;5.006;2023-09-30T01:43:12;12.82;;;6.43;;
79702;SDS011;69172;52.352;5.006;2023-09-30T01:45:39;18.58;;;6.93;;
79702;SDS011;69172;52.352;5.006;2023-09-30T01:48:05;16.13;;;6.32;;
79702;SDS011;69172;52.352;5.006;2023-09-30T01:50:30;17.58;;;6.88;;
79702;SDS011;69172;52.352;5.006;2023-09-30T01:52:56;16.27;;;7.05;;
79702;SDS011;69172;52.352;5.006;2023-09-30T01:55:22;17.67;;;6.88;;
79702;SDS011;69172;52.352;5.006;2023-09-30T01:57:48;16.85;;;7.70;;
79702;SDS011;69172;52.352;5.006;2023-09-30T02:00:14;16.17;;;7.03;;
79702;SDS011;69172;52.352;5.006;2023-09-30T02:02:39;15.20;;;7.40;;
79702;SDS011;69172;52.352;5.006;2023-09-30T02:05:05;19.55;;;7.88;;
79702;SDS011;69172;52.352;5.006;2023-09-30T02:07:33;20.02;;;7.60;;
79702;SDS011;69172;52.352;5.006;2023-09-30T02:09:59;15.25;;;7.10;;
79702;SDS011;69172;52.352;5.006;2023-09-30T02:12:26;18.27;;;7.10;;
79702;SDS011;69172;52.352;5.006;2023-09-30T02:14:54;18.65;;;7.97;;
79702;SDS011;69172;52.352;5.006;2023-09-30T02:17:19;15.95;;;7.70;;
79702;SDS011;69172;52.352;5.006;2023-09-30T02:19:45;20.73;;;7.45;;
79702;SDS011;69172;52.352;5.006;2023-09-30T02:22:13;19.98;;;7.32;;
79702;SDS011;69172;52.352;5.006;2023-09-30T02:24:38;18.98;;;7.60;;
79702;SDS011;69172;52.352;5.006;2023-09-30T02:27:05;15.98;;;7.05;;
79702;SDS011;69172;52.352;5.006;2023-09-30T02:29:31;20.55;;;7.63;;
79702;SDS011;69172;52.352;5.006;2023-09-30T02:31:57;20.98;;;8.27;;
79702;SDS011;69172;52.352;5.006;2023-09-30T02:34:23;20.75;;;8.23;;
79702;SDS011;69172;52.352;5.006;2023-09-30T02:36:49;18.80;;;8.43;;
79702;SDS011;69172;52.352;5.006;2023-09-30T02:39:15;18.77;;;8.82;;
79702;SDS011;69172;52.352;5.006;2023-09-30T02:41:42;20.17;;;7.88;;
79702;SDS011;69172;52.352;5.006;2023-09-30T02:44:08;17.10;;;7.82;;
79702;SDS011;69172;52.352;5.006;2023-09-30T02:46:33;15.75;;;8.38;;
79702;SDS011;69172;52.352;5.006;2023-09-30T02:49:00;17.80;;;7.75;;
79702;SDS011;69172;52.352;5.006;2023-09-30T02:51:27;18.05;;;7.63;;
79702;SDS011;69172;52.352;5.006;2023-09-30T02:53:53;16.98;;;8.32;;
79702;SDS011;69172;52.352;5.006;2023-09-30T02:56:18;17.10;;;8.70;;
79702;SDS011;69172;52.352;5.006;2023-09-30T02:58:45;16.23;;;8.43;;
79702;SDS011;69172;52.352;5.006;2023-09-30T03:01:13;18.88;;;8.73;;
79702;SDS011;69172;52.352;5.006;2023-09-30T03:03:42;21.45;;;9.68;;
79702;SDS011;69172;52.352;5.006;2023-09-30T03:06:09;21.73;;;9.43;;
79702;SDS011;69172;52.352;5.006;2023-09-30T03:08:36;20.70;;;9.77;;
79702;SDS011;69172;52.352;5.006;2023-09-30T03:11:02;24.23;;;9.75;;
79702;SDS011;69172;52.352;5.006;2023-09-30T03:13:28;19.02;;;9.07;;
79702;SDS011;69172;52.352;5.006;2023-09-30T03:15:55;18.50;;;9.10;;
79702;SDS011;69172;52.352;5.006;2023-09-30T03:18:22;20.67;;;9.15;;
79702;SDS011;69172;52.352;5.006;2023-09-30T03:20:51;21.10;;;9.55;;
79702;SDS011;69172;52.352;5.006;2023-09-30T03:23:22;20.50;;;9.13;;
79702;SDS011;69172;52.352;5.006;2023-09-30T03:25:55;18.10;;;9.15;;
79702;SDS011;69172;52.352;5.006;2023-09-30T03:28:24;21.17;;;9.95;;
79702;SDS011;69172;52.352;5.006;2023-09-30T03:30:50;20.17;;;9.25;;
79702;SDS011;69172;52.352;5.006;2023-09-30T03:33:16;23.13;;;11.00;;
79702;SDS011;69172;52.352;5.006;2023-09-30T03:35:43;22.00;;;10.32;;
79702;SDS011;69172;52.352;5.006;2023-09-30T03:38:09;23.05;;;9.98;;
79702;SDS011;69172;52.352;5.006;2023-09-30T03:40:35;21.30;;;9.43;;
79702;SDS011;69172;52.352;5.006;2023-09-30T03:43:04;19.08;;;9.43;;
79702;SDS011;69172;52.352;5.006;2023-09-30T03:45:34;21.98;;;9.68;;
79702;SDS011;69172;52.352;5.006;2023-09-30T03:48:14;21.58;;;9.68;;
79702;SDS011;69172;52.352;5.006;2023-09-30T03:50:39;20.10;;;10.27;;
79702;SDS011;69172;52.352;5.006;2023-09-30T03:55:40;22.42;;;10.63;;
79702;SDS011;69172;52.352;5.006;2023-09-30T03:58:07;19.33;;;9.68;;
79702;SDS011;69172;52.352;5.006;2023-09-30T04:00:34;22.20;;;10.80;;
79702;SDS011;69172;52.352;5.006;2023-09-30T04:03:03;21.90;;;9.65;;
79702;SDS011;69172;52.352;5.006;2023-09-30T04:05:28;21.60;;;10.05;;
79702;SDS011;69172;52.352;5.006;2023-09-30T04:07:55;20.75;;;9.90;;
79702;SDS011;69172;52.352;5.006;2023-09-30T04:10:21;22.80;;;11.02;;
79702;SDS011;69172;52.352;5.006;2023-09-30T04:12:50;21.00;;;11.73;;
79702;SDS011;69172;52.352;5.006;2023-09-30T04:15:17;22.92;;;12.18;;
79702;SDS011;69172;52.352;5.006;2023-09-30T04:17:43;21.25;;;11.23;;
79702;SDS011;69172;52.352;5.006;2023-09-30T04:20:10;23.67;;;10.40;;
79702;SDS011;69172;52.352;5.006;2023-09-30T04:22:41;23.55;;;12.18;;
79702;SDS011;69172;52.352;5.006;2023-09-30T04:25:09;26.23;;;12.27;;
79702;SDS011;69172;52.352;5.006;2023-09-30T04:27:36;32.40;;;12.13;;
79702;SDS011;69172;52.352;5.006;2023-09-30T04:30:02;25.88;;;11.52;;
79702;SDS011;69172;52.352;5.006;2023-09-30T04:32:35;21.70;;;11.07;;
79702;SDS011;69172;52.352;5.006;2023-09-30T04:35:02;26.50;;;11.13;;
79702;SDS011;69172;52.352;5.006;2023-09-30T04:37:28;26.23;;;11.27;;
79702;SDS011;69172;52.352;5.006;2023-09-30T04:39:53;20.30;;;10.13;;
79702;SDS011;69172;52.352;5.006;2023-09-30T04:42:19;29.27;;;11.25;;
79702;SDS011;69172;52.352;5.006;2023-09-30T04:44:44;20.15;;;10.90;;
79702;SDS011;69172;52.352;5.006;2023-09-30T04:47:10;24.40;;;11.50;;
79702;SDS011;69172;52.352;5.006;2023-09-30T04:49:35;25.90;;;11.73;;
79702;SDS011;69172;52.352;5.006;2023-09-30T04:52:01;21.08;;;10.15;;
79702;SDS011;69172;52.352;5.006;2023-09-30T04:54:26;22.70;;;10.57;;
79702;SDS011;69172;52.352;5.006;2023-09-30T04:56:54;24.77;;;10.77;;
79702;SDS011;69172;52.352;5.006;2023-09-30T04:59:20;18.65;;;9.75;;
79702;SDS011;69172;52.352;5.006;2023-09-30T05:01:46;25.90;;;12.40;;
79702;SDS011;69172;52.352;5.006;2023-09-30T05:04:11;20.13;;;10.13;;
79702;SDS011;69172;52.352;5.006;2023-09-30T05:06:37;23.10;;;10.88;;
79702;SDS011;69172;52.352;5.006;2023-09-30T05:09:03;22.42;;;11.82;;
79702;SDS011;69172;52.352;5.006;2023-09-30T05:11:29;22.27;;;11.52;;
79702;SDS011;69172;52.352;5.006;2023-09-30T05:13:56;24.55;;;11.65;;
79702;SDS011;69172;52.352;5.006;2023-09-30T05:16:22;21.40;;;10.88;;
79702;SDS011;69172;52.352;5.006;2023-09-30T05:18:48;22.02;;;10.60;;
79702;SDS011;69172;52.352;5.006;2023-09-30T05:21:13;23.50;;;11.77;;
79702;SDS011;69172;52.352;5.006;2023-09-30T05:23:39;28.13;;;12.85;;
79702;SDS011;69172;52.352;5.006;2023-09-30T05:26:06;29.88;;;12.35;;
79702;SDS011;69172;52.352;5.006;2023-09-30T05:28:32;27.17;;;13.30;;
79702;SDS011;69172;52.352;5.006;2023-09-30T05:30:57;28.67;;;12.60;;
79702;SDS011;69172;52.352;5.006;2023-09-30T05:33:22;24.10;;;12.68;;
79702;SDS011;69172;52.352;5.006;2023-09-30T05:35:48;28.23;;;14.25;;
79702;SDS011;69172;52.352;5.006;2023-09-30T05:38:13;26.48;;;12.73;;
79702;SDS011;69172;52.352;5.006;2023-09-30T05:40:39;30.38;;;13.43;;
79702;SDS011;69172;52.352;5.006;2023-09-30T05:43:05;24.55;;;12.88;;
79702;SDS011;69172;52.352;5.006;2023-09-30T05:45:32;24.73;;;12.82;;
79702;SDS011;69172;52.352;5.006;2023-09-30T05:48:01;26.98;;;13.02;;
79702;SDS011;69172;52.352;5.006;2023-09-30T05:50:29;31.00;;;13.27;;
79702;SDS011;69172;52.352;5.006;2023-09-30T05:52:56;24.10;;;12.52;;
79702;SDS011;69172;52.352;5.006;2023-09-30T05:55:22;28.10;;;14.07;;
79702;SDS011;69172;52.352;5.006;2023-09-30T05:57:51;24.33;;;12.50;;
79702;SDS011;69172;52.352;5.006;2023-09-30T06:00:19;31.20;;;14.32;;
79702;SDS011;69172;52.352;5.006;2023-09-30T06:03:03;31.35;;;13.93;;
79702;SDS011;69172;52.352;5.006;2023-09-30T06:05:32;28.98;;;13.80;;
79702;SDS011;69172;52.352;5.006;2023-09-30T06:07:59;28.27;;;14.68;;
79702;SDS011;69172;52.352;5.006;2023-09-30T06:10:30;30.98;;;15.02;;
79702;SDS011;69172;52.352;5.006;2023-09-30T06:12:55;28.30;;;14.18;;
79702;SDS011;69172;52.352;5.006;2023-09-30T06:15:22;26.85;;;14.52;;
79702;SDS011;69172;52.352;5.006;2023-09-30T06:17:51;29.17;;;14.55;;
79702;SDS011;69172;52.352;5.006;2023-09-30T06:20:17;28.63;;;14.77;;
79702;SDS011;69172;52.352;5.006;2023-09-30T06:22:44;34.05;;;16.95;;
79702;SDS011;69172;52.352;5.006;2023-09-30T06:25:17;30.35;;;14.57;;
79702;SDS011;69172;52.352;5.006;2023-09-30T06:27:46;33.88;;;15.38;;
79702;SDS011;69172;52.352;5.006;2023-09-30T06:30:14;31.58;;;15.43;;
79702;SDS011;69172;52.352;5.006;2023-09-30T06:32:41;29.23;;;13.68;;
79702;SDS011;69172;52.352;5.006;2023-09-30T06:35:07;33.55;;;14.77;;
79702;SDS011;69172;52.352;5.006;2023-09-30T06:37:35;30.08;;;14.95;;
79702;SDS011;69172;52.352;5.006;2023-09-30T06:40:05;32.35;;;14.98;;
79702;SDS011;69172;52.352;5.006;2023-09-30T06:42:33;34.33;;;14.55;;
79702;SDS011;69172;52.352;5.006;2023-09-30T06:45:00;29.13;;;15.55;;
79702;SDS011;69172;52.352;5.006;2023-09-30T06:47:26;30.65;;;15.88;;
79702;SDS011;69172;52.352;5.006;2023-09-30T06:49:52;33.25;;;15.15;;
79702;SDS011;69172;52.352;5.006;2023-09-30T06:52:18;35.35;;;16.75;;
79702;SDS011;69172;52.352;5.006;2023-09-30T06:54:46;36.05;;;17.15;;
79702;SDS011;69172;52.352;5.006;2023-09-30T06:57:11;36.22;;;18.05;;
79702;SDS011;69172;52.352;5.006;2023-09-30T06:59:36;38.85;;;18.00;;
79702;SDS011;69172;52.352;5.006;2023-09-30T07:02:02;37.00;;;16.77;;
79702;SDS011;69172;52.352;5.006;2023-09-30T07:04:28;38.92;;;17.58;;
79702;SDS011;69172;52.352;5.006;2023-09-30T07:06:54;33.47;;;18.30;;
79702;SDS011;69172;52.352;5.006;2023-09-30T07:09:20;35.80;;;16.10;;
79702;SDS011;69172;52.352;5.006;2023-09-30T07:11:45;31.75;;;16.83;;
79702;SDS011;69172;52.352;5.006;2023-09-30T07:14:11;33.25;;;16.70;;
79702;SDS011;69172;52.352;5.006;2023-09-30T07:16:38;34.78;;;16.88;;
79702;SDS011;69172;52.352;5.006;2023-09-30T07:19:05;31.08;;;14.63;;
79702;SDS011;69172;52.352;5.006;2023-09-30T07:21:31;29.85;;;16.73;;
79702;SDS011;69172;52.352;5.006;2023-09-30T07:23:56;31.45;;;16.35;;
79702;SDS011;69172;52.352;5.006;2023-09-30T07:26:25;36.65;;;16.45;;
79702;SDS011;69172;52.352;5.006;2023-09-30T07:28:52;28.65;;;16.48;;
79702;SDS011;69172;52.352;5.006;2023-09-30T07:31:19;32.55;;;14.20;;
79702;SDS011;69172;52.352;5.006;2023-09-30T07:33:44;33.33;;;15.20;;
79702;SDS011;69172;52.352;5.006;2023-09-30T07:36:13;27.98;;;14.63;;
79702;SDS011;69172;52.352;5.006;2023-09-30T07:38:39;29.23;;;13.85;;
79702;SDS011;69172;52.352;5.006;2023-09-30T07:41:05;24.02;;;13.57;;
79702;SDS011;69172;52.352;5.006;2023-09-30T07:43:32;29.35;;;14.07;;
79702;SDS011;69172;52.352;5.006;2023-09-30T07:45:57;26.55;;;12.73;;
79702;SDS011;69172;52.352;5.006;2023-09-30T07:48:24;26.35;;;13.60;;
79702;SDS011;69172;52.352;5.006;2023-09-30T07:50:52;28.02;;;12.60;;
79702;SDS011;69172;52.352;5.006;2023-09-30T07:53:23;25.55;;;12.52;;
79702;SDS011;69172;52.352;5.006;2023-09-30T07:55:50;22.98;;;11.20;;
79702;SDS011;69172;52.352;5.006;2023-09-30T07:58:15;23.52;;;12.25;;
79702;SDS011;69172;52.352;5.006;2023-09-30T08:00:41;25.17;;;11.15;;
79702;SDS011;69172;52.352;5.006;2023-09-30T08:03:06;25.42;;;11.82;;
79702;SDS011;69172;52.352;5.006;2023-09-30T08:05:33;26.23;;;11.70;;
79702;SDS011;69172;52.352;5.006;2023-09-30T08:07:58;22.27;;;11.25;;
79702;SDS011;69172;52.352;5.006;2023-09-30T08:10:24;21.83;;;11.10;;
79702;SDS011;69172;52.352;5.006;2023-09-30T08:12:49;22.27;;;10.80;;
79702;SDS011;69172;52.352;5.006;2023-09-30T08:15:15;24.23;;;11.27;;
79702;SDS011;69172;52.352;5.006;2023-09-30T08:17:41;20.92;;;10.57;;
79702;SDS011;69172;52.352;5.006;2023-09-30T08:20:07;20.15;;;9.95;;
79702;SDS011;69172;52.352;5.006;2023-09-30T08:22:36;23.75;;;10.32;;
79702;SDS011;69172;52.352;5.006;2023-09-30T08:25:02;18.48;;;9.27;;
79702;SDS011;69172;52.352;5.006;2023-09-30T08:27:28;19.63;;;9.35;;
79702;SDS011;69172;52.352;5.006;2023-09-30T08:29:53;19.05;;;9.10;;
79702;SDS011;69172;52.352;5.006;2023-09-30T08:32:18;17.75;;;9.25;;
79702;SDS011;69172;52.352;5.006;2023-09-30T08:34:44;16.45;;;8.70;;
79702;SDS011;69172;52.352;5.006;2023-09-30T08:37:10;18.15;;;7.68;;
79702;SDS011;69172;52.352;5.006;2023-09-30T08:39:39;17.20;;;8.05;;
79702;SDS011;69172;52.352;5.006;2023-09-30T08:42:15;19.15;;;8.45;;
79702;SDS011;69172;52.352;5.006;2023-09-30T08:44:43;16.70;;;7.43;;
79702;SDS011;69172;52.352;5.006;2023-09-30T08:47:09;16.73;;;7.70;;
79702;SDS011;69172;52.352;5.006;2023-09-30T08:49:39;18.13;;;8.93;;
79702;SDS011;69172;52.352;5.006;2023-09-30T08:52:06;19.30;;;8.35;;
79702;SDS011;69172;52.352;5.006;2023-09-30T08:54:34;16.20;;;8.05;;
79702;SDS011;69172;52.352;5.006;2023-09-30T08:57:00;14.77;;;7.55;;
79702;SDS011;69172;52.352;5.006;2023-09-30T08:59:25;17.27;;;8.02;;
79702;SDS011;69172;52.352;5.006;2023-09-30T09:01:53;17.95;;;7.53;;
79702;SDS011;69172;52.352;5.006;2023-09-30T09:04:19;16.98;;;7.90;;
79702;SDS011;69172;52.352;5.006;2023-09-30T09:06:44;16.02;;;6.72;;
79702;SDS011;69172;52.352;5.006;2023-09-30T09:09:17;18.70;;;6.95;;
79702;SDS011;69172;52.352;5.006;2023-09-30T09:11:45;18.13;;;7.47;;
79702;SDS011;69172;52.352;5.006;2023-09-30T09:14:11;16.88;;;6.60;;
79702;SDS011;69172;52.352;5.006;2023-09-30T09:16:36;17.38;;;7.60;;
79702;SDS011;69172;52.352;5.006;2023-09-30T09:19:15;14.77;;;6.65;;
79702;SDS011;69172;52.352;5.006;2023-09-30T09:22:02;13.30;;;5.72;;
79702;SDS011;69172;52.352;5.006;2023-09-30T09:24:38;14.63;;;6.72;;
79702;SDS011;69172;52.352;5.006;2023-09-30T09:27:04;15.00;;;6.57;;
79702;SDS011;69172;52.352;5.006;2023-09-30T09:29:31;16.10;;;6.45;;
79702;SDS011;69172;52.352;5.006;2023-09-30T09:32:08;15.93;;;6.00;;
79702;SDS011;69172;52.352;5.006;2023-09-30T09:34:36;14.88;;;6.22;;
79702;SDS011;69172;52.352;5.006;2023-09-30T09:37:14;18.27;;;6.20;;
79702;SDS011;69172;52.352;5.006;2023-09-30T09:39:55;14.00;;;6.72;;
79702;SDS011;69172;52.352;5.006;2023-09-30T09:42:31;14.68;;;6.55;;
79702;SDS011;69172;52.352;5.006;2023-09-30T09:44:59;16.40;;;7.38;;
79702;SDS011;69172;52.352;5.006;2023-09-30T09:47:27;15.13;;;6.22;;
79702;SDS011;69172;52.352;5.006;2023-09-30T09:49:54;16.15;;;6.13;;
79702;SDS011;69172;52.352;5.006;2023-09-30T09:52:22;12.68;;;6.32;;
79702;SDS011;69172;52.352;5.006;2023-09-30T09:54:48;14.60;;;5.63;;
79702;SDS011;69172;52.352;5.006;2023-09-30T09:57:16;16.17;;;5.57;;
79702;SDS011;69172;52.352;5.006;2023-09-30T09:59:45;18.88;;;6.38;;
79702;SDS011;69172;52.352;5.006;2023-09-30T10:02:18;12.95;;;4.65;;
79702;SDS011;69172;52.352;5.006;2023-09-30T10:04:50;14.80;;;4.80;;
79702;SDS011;69172;52.352;5.006;2023-09-30T10:07:24;19.48;;;6.65;;
79702;SDS011;69172;52.352;5.006;2023-09-30T10:09:52;19.33;;;8.35;;
79702;SDS011;69172;52.352;5.006;2023-09-30T10:12:23;22.08;;;9.55;;
79702;SDS011;69172;52.352;5.006;2023-09-30T10:14:48;17.65;;;9.00;;
79702;SDS011;69172;52.352;5.006;2023-09-30T10:17:14;18.38;;;9.45;;
79702;SDS011;69172;52.352;5.006;2023-09-30T10:22:34;18.98;;;9.13;;
79702;SDS011;69172;52.352;5.006;2023-09-30T10:25:00;17.52;;;7.82;;
79702;SDS011;69172;52.352;5.006;2023-09-30T10:27:27;17.65;;;6.57;;
79702;SDS011;69172;52.352;5.006;2023-09-30T10:35:22;18.98;;;7.00;;
79702;SDS011;69172;52.352;5.006;2023-09-30T10:40:49;14.65;;;7.03;;
79702;SDS011;69172;52.352;5.006;2023-09-30T10:46:01;16.40;;;7.57;;
79702;SDS011;69172;52.352;5.006;2023-09-30T10:51:15;18.77;;;8.48;;
79702;SDS011;69172;52.352;5.006;2023-09-30T10:53:47;15.18;;;7.70;;
79702;SDS011;69172;52.352;5.006;2023-09-30T10:56:14;18.50;;;8.15;;
79702;SDS011;69172;52.352;5.006;2023-09-30T10:58:40;11.65;;;3.95;;
79702;SDS011;69172;52.352;5.006;2023-09-30T11:01:08;11.85;;;3.95;;
79702;SDS011;69172;52.352;5.006;2023-09-30T11:03:34;14.23;;;4.25;;
79702;SDS011;69172;52.352;5.006;2023-09-30T11:06:06;14.32;;;4.32;;
79702;SDS011;69172;52.352;5.006;2023-09-30T11:08:31;11.77;;;3.63;;
79702;SDS011;69172;52.352;5.006;2023-09-30T11:10:58;12.13;;;3.55;;
79702;SDS011;69172;52.352;5.006;2023-09-30T11:13:30;10.60;;;3.03;;
79702;SDS011;69172;52.352;5.006;2023-09-30T11:16:02;12.27;;;2.75;;
79702;SDS011;69172;52.352;5.006;2023-09-30T11:18:30;9.07;;;2.35;;
79702;SDS011;69172;52.352;5.006;2023-09-30T11:21:10;10.73;;;2.20;;
79702;SDS011;69172;52.352;5.006;2023-09-30T11:23:38;9.18;;;2.13;;
79702;SDS011;69172;52.352;5.006;2023-09-30T11:26:05;11.15;;;2.78;;
79702;SDS011;69172;52.352;5.006;2023-09-30T11:28:38;10.88;;;2.30;;
79702;SDS011;69172;52.352;5.006;2023-09-30T11:31:06;6.43;;;1.88;;
79702;SDS011;69172;52.352;5.006;2023-09-30T11:33:56;9.98;;;1.83;;
79702;SDS011;69172;52.352;5.006;2023-09-30T11:36:23;11.60;;;1.98;;
79702;SDS011;69172;52.352;5.006;2023-09-30T11:38:50;13.52;;;2.65;;
79702;SDS011;69172;52.352;5.006;2023-09-30T11:41:22;15.75;;;2.35;;
79702;SDS011;69172;52.352;5.006;2023-09-30T11:46:30;10.60;;;2.00;;
79702;SDS011;69172;52.352;5.006;2023-09-30T11:49:01;8.30;;;1.98;;
79702;SDS011;69172;52.352;5.006;2023-09-30T11:51:30;9.38;;;1.77;;
79702;SDS011;69172;52.352;5.006;2023-09-30T11:54:08;8.50;;;1.80;;
79702;SDS011;69172;52.352;5.006;2023-09-30T11:56:33;8.25;;;1.75;;
79702;SDS011;69172;52.352;5.006;2023-09-30T11:59:00;7.78;;;1.60;;
79702;SDS011;69172;52.352;5.006;2023-09-30T12:01:28;6.07;;;1.42;;
79702;SDS011;69172;52.352;5.006;2023-09-30T12:03:55;8.80;;;1.90;;
79702;SDS011;69172;52.352;5.006;2023-09-30T12:06:21;9.27;;;1.52;;
79702;SDS011;69172;52.352;5.006;2023-09-30T12:08:48;9.38;;;1.63;;
79702;SDS011;69172;52.352;5.006;2023-09-30T12:11:17;11.15;;;1.70;;
79702;SDS011;69172;52.352;5.006;2023-09-30T12:13:44;8.43;;;1.75;;
79702;SDS011;69172;52.352;5.006;2023-09-30T12:16:12;7.78;;;1.50;;
79702;SDS011;69172;52.352;5.006;2023-09-30T12:18:44;12.60;;;2.97;;
79702;SDS011;69172;52.352;5.006;2023-09-30T12:21:18;10.25;;;2.38;;
79702;SDS011;69172;52.352;5.006;2023-09-30T12:23:47;10.63;;;2.28;;
79702;SDS011;69172;52.352;5.006;2023-09-30T12:26:19;9.18;;;1.92;;
79702;SDS011;69172;52.352;5.006;2023-09-30T12:28:46;12.68;;;2.63;;
79702;SDS011;69172;52.352;5.006;2023-09-30T12:31:13;12.10;;;1.95;;
79702;SDS011;69172;52.352;5.006;2023-09-30T12:33:39;9.10;;;2.40;;
79702;SDS011;69172;52.352;5.006;2023-09-30T12:36:05;11.73;;;2.15;;
79702;SDS011;69172;52.352;5.006;2023-09-30T12:38:31;13.95;;;2.55;;
79702;SDS011;69172;52.352;5.006;2023-09-30T12:40:57;7.63;;;1.50;;
79702;SDS011;69172;52.352;5.006;2023-09-30T12:43:23;8.73;;;1.85;;
79702;SDS011;69172;52.352;5.006;2023-09-30T12:45:55;9.15;;;2.33;;
79702;SDS011;69172;52.352;5.006;2023-09-30T12:48:21;11.25;;;2.58;;
79702;SDS011;69172;52.352;5.006;2023-09-30T12:50:47;12.05;;;3.15;;
79702;SDS011;69172;52.352;5.006;2023-09-30T12:53:13;6.03;;;1.83;;
79702;SDS011;69172;52.352;5.006;2023-09-30T12:55:40;16.23;;;2.10;;
79702;SDS011;69172;52.352;5.006;2023-09-30T12:58:06;8.60;;;1.60;;
79702;SDS011;69172;52.352;5.006;2023-09-30T13:00:33;11.10;;;2.38;;
79702;SDS011;69172;52.352;5.006;2023-09-30T13:05:29;12.70;;;2.92;;
79702;SDS011;69172;52.352;5.006;2023-09-30T13:07:55;9.32;;;1.67;;
79702;SDS011;69172;52.352;5.006;2023-09-30T13:10:23;9.63;;;2.35;;
79702;SDS011;69172;52.352;5.006;2023-09-30T13:12:49;12.25;;;2.13;;
79702;SDS011;69172;52.352;5.006;2023-09-30T13:15:15;9.43;;;2.10;;
79702;SDS011;69172;52.352;5.006;2023-09-30T13:17:44;10.90;;;1.92;;
79702;SDS011;69172;52.352;5.006;2023-09-30T13:20:10;10.75;;;2.28;;
79702;SDS011;69172;52.352;5.006;2023-09-30T13:22:40;12.77;;;2.10;;
79702;SDS011;69172;52.352;5.006;2023-09-30T13:25:05;7.68;;;2.13;;
79702;SDS011;69172;52.352;5.006;2023-09-30T13:27:33;10.82;;;2.38;;
79702;SDS011;69172;52.352;5.006;2023-09-30T13:29:58;10.43;;;2.10;;
79702;SDS011;69172;52.352;5.006;2023-09-30T13:32:24;11.45;;;2.20;;
79702;SDS011;69172;52.352;5.006;2023-09-30T13:34:50;11.55;;;2.97;;
79702;SDS011;69172;52.352;5.006;2023-09-30T13:37:16;15.63;;;4.20;;
79702;SDS011;69172;52.352;5.006;2023-09-30T13:39:42;11.52;;;1.85;;
79702;SDS011;69172;52.352;5.006;2023-09-30T13:42:07;10.60;;;2.33;;
79702;SDS011;69172;52.352;5.006;2023-09-30T13:44:33;11.27;;;2.45;;
79702;SDS011;69172;52.352;5.006;2023-09-30T13:46:58;10.55;;;2.13;;
79702;SDS011;69172;52.352;5.006;2023-09-30T13:49:24;11.45;;;3.45;;
79702;SDS011;69172;52.352;5.006;2023-09-30T13:51:50;11.63;;;2.65;;
79702;SDS011;69172;52.352;5.006;2023-09-30T13:54:16;11.10;;;2.60;;
79702;SDS011;69172;52.352;5.006;2023-09-30T13:56:42;12.73;;;2.88;;
79702;SDS011;69172;52.352;5.006;2023-09-30T13:59:09;11.55;;;2.70;;
79702;SDS011;69172;52.352;5.006;2023-09-30T14:01:34;9.73;;;2.60;;
79702;SDS011;69172;52.352;5.006;2023-09-30T14:04:00;13.55;;;3.10;;
79702;SDS011;69172;52.352;5.006;2023-09-30T14:06:26;16.45;;;3.03;;
79702;SDS011;69172;52.352;5.006;2023-09-30T14:08:57;7.93;;;2.42;;
79702;SDS011;69172;52.352;5.006;2023-09-30T14:11:22;14.90;;;3.50;;
79702;SDS011;69172;52.352;5.006;2023-09-30T14:13:48;10.70;;;2.88;;
79702;SDS011;69172;52.352;5.006;2023-09-30T14:16:14;11.57;;;2.65;;
79702;SDS011;69172;52.352;5.006;2023-09-30T14:18:40;11.13;;;2.92;;
79702;SDS011;69172;52.352;5.006;2023-09-30T14:21:06;13.60;;;6.43;;
79702;SDS011;69172;52.352;5.006;2023-09-30T14:23:31;11.93;;;3.38;;
79702;SDS011;69172;52.352;5.006;2023-09-30T14:25:57;10.18;;;2.55;;
79702;SDS011;69172;52.352;5.006;2023-09-30T14:28:24;12.13;;;2.63;;
79702;SDS011;69172;52.352;5.006;2023-09-30T14:30:51;12.52;;;2.40;;
79702;SDS011;69172;52.352;5.006;2023-09-30T14:33:16;12.25;;;3.50;;
79702;SDS011;69172;52.352;5.006;2023-09-30T14:35:44;13.90;;;3.28;;
79702;SDS011;69172;52.352;5.006;2023-09-30T14:38:10;9.90;;;2.58;;
79702;SDS011;69172;52.352;5.006;2023-09-30T14:40:39;12.60;;;2.63;;
79702;SDS011;69172;52.352;5.006;2023-09-30T14:43:05;9.40;;;2.45;;
79702;SDS011;69172;52.352;5.006;2023-09-30T14:45:31;11.43;;;3.00;;
79702;SDS011;69172;52.352;5.006;2023-09-30T14:47:57;13.55;;;2.80;;
79702;SDS011;69172;52.352;5.006;2023-09-30T14:50:22;13.25;;;2.78;;
79702;SDS011;69172;52.352;5.006;2023-09-30T14:52:47;13.57;;;3.08;;
79702;SDS011;69172;52.352;5.006;2023-09-30T14:55:14;15.52;;;3.47;;